Time;durP1;ratioP1;P1;durP2;ratioP2;P2;SDS_P1;SDS_P2;PMS_P1;PMS_P2;Temp;Humidity;BMP_temperature;BMP_pressure;BME280_temperature;BME280_humidity;BME280_pressure;Samples;Min_cycle;Max_cycle;Signal;HPM_P1;HPM_P2
2023/10/01 00:00:20;;;;;;;;;20.00;19.33;;;;;20.86;74.75;101662.66;6180742;22;45462;-73
2023/10/01 00:02:47;;;;;;;;;24.00;19.00;;;;;20.80;74.77;101665.44;6179644;23;45454;-74
2023/10/01 00:05:12;;;;;;;;;18.67;15.67;;;;;20.76;74.93;101671.81;6180999;22;45452;-74
2023/10/01 00:07:38;;;;;;;;;22.00;19.00;;;;;20.73;75.06;101666.47;6203036;22;45333;-74
2023/10/01 00:10:10;;;;;;;;;19.00;18.33;;;;;20.84;75.27;101666.31;6210741;22;45427;-73
2023/10/01 00:12:40;;;;;;;;;16.00;14.33;;;;;20.71;75.44;101663.78;6208629;22;45359;-73
2023/10/01 00:15:12;;;;;;;;;19.67;16.00;;;;;20.82;75.47;101669.03;6183327;22;45502;-74
2023/10/01 00:17:44;;;;;;;;;16.67;16.67;;;;;20.83;75.46;101664.53;6210430;22;45479;-74
2023/10/01 00:20:20;;;;;;;;;15.67;14.67;;;;;20.69;75.80;101662.03;6210580;22;45471;-74
2023/10/01 00:22:46;;;;;;;;;16.00;16.00;;;;;20.65;76.25;101663.84;6208725;22;45402;-73
2023/10/01 00:25:12;;;;;;;;;19.00;16.00;;;;;20.64;76.37;101669.28;6211013;22;45401;-74
2023/10/01 00:27:38;;;;;;;;;17.00;16.00;;;;;20.61;76.38;101664.81;6210660;22;45437;-73
2023/10/01 00:30:08;;;;;;;;;21.67;16.67;;;;;20.68;76.64;101654.81;6210287;22;45377;-73
2023/10/01 00:32:34;;;;;;;;;15.33;14.00;;;;;20.63;76.75;101667.50;6183511;22;45502;-73
2023/10/01 00:34:59;;;;;;;;;19.67;18.33;;;;;20.60;76.74;101656.72;6211067;22;45441;-73
2023/10/01 00:37:24;;;;;;;;;19.00;19.00;;;;;20.53;76.46;101648.66;6210262;22;45439;-73
2023/10/01 00:39:56;;;;;;;;;16.00;16.00;;;;;20.61;76.63;101663.94;6210522;22;45686;-73
2023/10/01 00:42:23;;;;;;;;;18.67;17.00;;;;;20.55;76.60;101660.34;6210287;22;45433;-74
2023/10/01 00:44:48;;;;;;;;;19.67;15.33;;;;;20.53;76.62;101655.88;6183896;22;45454;-73
2023/10/01 00:47:14;;;;;;;;;19.33;17.00;;;;;20.53;76.75;101655.88;6207708;22;46200;-74
2023/10/01 00:49:47;;;;;;;;;18.33;17.00;;;;;20.67;77.01;101647.63;6182888;22;45447;-74
2023/10/01 00:52:20;;;;;;;;;18.33;16.00;;;;;20.73;77.10;101650.25;6183209;22;45645;-73
2023/10/01 00:54:46;;;;;;;;;24.33;20.00;;;;;20.49;77.19;101646.91;6211175;22;45285;-73
2023/10/01 00:57:12;;;;;;;;;22.00;20.33;;;;;20.45;77.13;101644.28;6183272;22;46530;-73
2023/10/01 00:59:37;;;;;;;;;18.67;17.67;;;;;20.41;77.69;101643.41;6182652;22;45376;-73
2023/10/01 01:02:09;;;;;;;;;23.33;16.33;;;;;20.52;77.53;101648.66;6184365;22;45336;-71
2023/10/01 01:04:42;;;;;;;;;18.67;18.00;;;;;20.51;77.84;101641.50;6210592;22;44855;-71
2023/10/01 01:07:19;;;;;;;;;17.33;15.67;;;;;20.45;77.64;101641.56;6208662;22;46521;-70
2023/10/01 01:09:46;;;;;;;;;19.33;16.33;;;;;20.41;77.80;101639.81;6183608;22;45345;-71
2023/10/01 01:12:15;;;;;;;;;21.67;17.67;;;;;20.36;77.88;101638.06;6208925;22;45279;-70
2023/10/01 01:14:44;;;;;;;;;10.67;8.33;;;;;20.38;77.88;101644.34;6211300;22;44788;-71
2023/10/01 01:17:13;;;;;;;;;19.00;15.00;;;;;20.48;78.27;101628.91;6183330;22;45645;-71
2023/10/01 01:19:39;;;;;;;;;16.00;15.00;;;;;20.35;78.17;101646.19;6211060;22;45423;-71
2023/10/01 01:22:09;;;;;;;;;18.00;16.67;;;;;20.50;78.67;101636.97;6210882;22;45717;-68
2023/10/01 01:24:36;;;;;;;;;15.33;14.33;;;;;20.33;78.44;101631.81;6211731;22;45328;-70
2023/10/01 01:27:05;;;;;;;;;17.33;15.33;;;;;20.31;78.57;101628.22;6210685;22;45350;-70
2023/10/01 01:29:40;;;;;;;;;17.33;15.33;;;;;20.27;78.68;101621.06;6211117;22;44784;-70
2023/10/01 01:32:14;;;;;;;;;15.67;14.67;;;;;20.26;78.95;101616.56;6211469;22;45324;-71
2023/10/01 01:34:46;;;;;;;;;19.67;17.00;;;;;20.27;78.92;101619.25;6211769;22;45502;-70
2023/10/01 01:39:57;;;;;;;;;18.00;16.67;;;;;20.26;78.77;101613.88;6210704;22;45345;-71
2023/10/01 01:42:24;;;;;;;;;14.67;14.00;;;;;20.24;78.75;101605.81;6211785;22;44773;-70
2023/10/01 01:45:14;;;;;;;;;19.33;17.67;;;;;20.22;79.15;101607.63;6211951;22;45392;-70
2023/10/01 01:47:35;;;;;;;;;17.67;14.33;;;;;20.22;79.08;101613.03;6210130;22;45408;-70
2023/10/01 01:50:10;;;;;;;;;16.33;16.33;;;;;20.19;78.76;101608.53;6210860;22;45238;-69
2023/10/01 01:52:36;;;;;;;;;18.67;16.33;;;;;20.18;79.16;101603.19;6210468;22;45446;-70
2023/10/01 01:55:23;;;;;;;;;16.33;15.67;;;;;20.42;78.69;101609.16;6210717;22;45298;-70
2023/10/01 01:58:02;;;;;;;;;25.00;19.00;;;;;20.16;79.12;101605.91;6211087;22;45001;-71
2023/10/01 02:00:35;;;;;;;;;19.33;18.00;;;;;20.20;78.97;101604.06;6212274;22;45323;-70
2023/10/01 02:03:10;;;;;;;;;23.67;17.67;;;;;20.26;78.86;101614.78;6212376;22;45420;-73
2023/10/01 02:05:41;;;;;;;;;14.00;13.33;;;;;20.19;78.94;101611.25;6212881;22;45360;-70
2023/10/01 02:08:09;;;;;;;;;19.00;19.00;;;;;20.16;79.13;101611.28;6179125;23;47144;-70
2023/10/01 02:10:44;;;;;;;;;17.67;17.00;;;;;20.12;79.18;101609.53;6205214;22;44786;-69
2023/10/01 02:13:13;;;;;;;;;18.33;16.00;;;;;20.29;79.21;101609.31;6182044;22;44709;-71
2023/10/01 02:15:39;;;;;;;;;17.67;16.33;;;;;20.14;79.03;101609.53;6182044;22;45338;-70
2023/10/01 02:18:08;;;;;;;;;16.67;14.00;;;;;20.12;79.36;101614.94;6180053;23;46882;-69
2023/10/01 02:20:35;;;;;;;;;17.33;16.33;;;;;20.07;79.93;101606.00;6182060;22;44744;-70
2023/10/01 02:23:02;;;;;;;;;18.67;16.00;;;;;20.04;80.08;101614.13;6182076;23;45265;-71
2023/10/01 02:25:38;;;;;;;;;20.67;18.00;;;;;20.04;80.13;101614.13;6179975;23;45379;-71
2023/10/01 02:28:15;;;;;;;;;19.00;19.00;;;;;20.12;80.29;101601.44;6204771;22;47679;-70
2023/10/01 02:30:42;;;;;;;;;17.00;14.33;;;;;20.11;80.17;101610.44;6180244;23;45495;-70
2023/10/01 02:33:18;;;;;;;;;17.67;16.33;;;;;20.22;80.16;101601.31;6182264;22;44789;-70
2023/10/01 02:35:49;;;;;;;;;25.00;21.67;;;;;20.10;80.45;101614.06;6180098;23;45450;-71
2023/10/01 02:41:02;;;;;;;;;15.00;14.33;;;;;19.93;81.32;101618.75;6181609;23;45506;-69
2023/10/01 02:43:40;;;;;;;;;14.33;14.33;;;;;19.97;81.01;101612.41;6182533;22;45111;-69
2023/10/01 02:46:11;;;;;;;;;22.00;18.00;;;;;20.05;81.06;101606.94;6182227;23;44729;-70
2023/10/01 02:48:41;;;;;;;;;17.67;17.67;;;;;19.99;81.46;101618.69;6182230;22;45403;-70
2023/10/01 02:51:16;;;;;;;;;18.00;16.33;;;;;19.84;81.82;101610.75;6182194;22;45177;-70
2023/10/01 02:56:52;;;;;;;;;16.00;11.00;;;;;19.96;82.41;101592.63;6182581;23;44792;-69
2023/10/01 02:59:19;;;;;;;;;16.00;15.00;;;;;19.78;82.66;101601.81;6179779;23;46674;-69
2023/10/01 03:01:47;;;;;;;;;24.00;23.67;;;;;19.75;82.72;101600.94;6181929;22;44813;-71
2023/10/01 03:04:16;;;;;;;;;17.67;16.67;;;;;19.80;82.79;101599.09;6180148;23;44770;-70
2023/10/01 03:07:05;;;;;;;;;20.00;16.33;;;;;19.70;83.40;101597.38;6189210;22;45469;-70
2023/10/01 03:09:33;;;;;;;;;21.00;17.00;;;;;19.67;83.01;101592.88;6210174;22;46165;-70
2023/10/01 03:15:00;;;;;;;;;25.00;20.33;;;;;19.66;83.83;101601.00;6212220;22;45294;-70
2023/10/01 03:17:27;;;;;;;;;24.33;22.33;;;;;19.63;84.00;101599.22;6210107;22;45474;-70
2023/10/01 03:19:53;;;;;;;;;23.33;21.33;;;;;19.59;83.93;101597.47;6184237;22;47091;-70
2023/10/01 03:22:31;;;;;;;;;15.67;13.67;;;;;19.56;84.41;101602.91;6184400;22;45389;-70
2023/10/01 03:24:58;;;;;;;;;18.67;18.67;;;;;19.55;83.98;101603.78;6211774;22;45418;-69
2023/10/01 03:27:27;;;;;;;;;23.67;19.00;;;;;19.51;84.73;101599.34;6212063;22;45328;-69
2023/10/01 03:30:35;;;;;;;;;20.67;16.33;;;;;19.51;84.58;101589.47;6184548;22;45976;-69
2023/10/01 03:32:41;;;;;;;;;26.00;22.67;;;;;19.51;85.15;101596.63;6196111;22;45449;-69
2023/10/01 03:35:08;;;;;;;;;22.67;20.00;;;;;19.51;85.40;101592.16;6210683;22;44790;-69
2023/10/01 03:37:43;;;;;;;;;25.00;20.33;;;;;19.50;85.28;101589.47;6185146;22;45373;-69
2023/10/01 03:40:21;;;;;;;;;20.00;18.33;;;;;19.52;86.27;101588.53;6212013;22;45405;-70
2023/10/01 03:42:53;;;;;;;;;25.00;22.67;;;;;19.49;85.70;101588.59;6212106;22;45120;-70
2023/10/01 03:45:37;;;;;;;;;22.67;19.33;;;;;19.52;85.90;101591.22;6211817;22;44913;-71
2023/10/01 03:48:06;;;;;;;;;20.33;17.00;;;;;19.58;85.54;101596.56;6184478;22;44888;-70
2023/10/01 03:50:39;;;;;;;;;18.00;18.00;;;;;19.52;86.06;101598.44;6211849;22;45280;-70
2023/10/01 03:53:11;;;;;;;;;21.00;20.00;;;;;19.49;86.34;101587.66;6184483;22;45305;-72
2023/10/01 03:55:39;;;;;;;;;24.67;22.33;;;;;19.48;86.23;101585.88;6212097;22;45239;-71
2023/10/01 04:01:26;;;;;;;;;19.67;16.67;;;;;19.53;86.41;101578.63;6211945;22;45665;-71
2023/10/01 04:03:16;;;;;;;;;19.33;16.67;;;;;19.47;86.33;101578.69;6194745;22;46582;-70
2023/10/01 04:05:46;;;;;;;;;27.67;20.67;;;;;19.48;86.79;101580.50;6184539;22;45341;-71
2023/10/01 04:08:12;;;;;;;;;17.00;13.67;;;;;19.44;86.69;101576.03;6210455;22;45777;-71
2023/10/01 04:10:38;;;;;;;;;22.00;19.33;;;;;19.45;86.89;101575.09;6211620;22;46237;-70
2023/10/01 04:15:47;;;;;;;;;18.33;18.33;;;;;19.37;87.35;101578.78;6212127;22;45434;-69
2023/10/01 04:23:40;;;;;;;;;18.33;15.00;;;;;19.56;87.20;101584.00;6211697;22;44706;-69
2023/10/01 04:26:08;;;;;;;;;22.67;20.33;;;;;19.43;87.10;101583.25;6209917;22;45407;-69
2023/10/01 04:28:35;;;;;;;;;20.00;19.33;;;;;19.37;86.89;101586.88;6214891;22;45503;-71
2023/10/01 04:31:09;;;;;;;;;21.33;21.00;;;;;19.31;86.92;101584.25;6211997;22;45396;-70
2023/10/01 04:33:42;;;;;;;;;21.67;19.00;;;;;19.33;86.35;101589.59;6211684;22;45293;-70
2023/10/01 04:36:10;;;;;;;;;20.33;19.67;;;;;19.30;86.67;101581.56;6212137;22;45484;-71
2023/10/01 04:38:37;;;;;;;;;22.67;21.33;;;;;19.26;86.21;101587.88;6213044;22;45349;-70
2023/10/01 04:41:07;;;;;;;;;19.33;19.33;;;;;19.23;86.69;101590.59;6212657;22;46904;-69
2023/10/01 04:43:41;;;;;;;;;23.67;20.00;;;;;19.23;87.46;101585.19;6213759;22;45399;-70
2023/10/01 04:46:09;;;;;;;;;21.67;21.67;;;;;19.33;87.19;101585.13;6212524;22;45356;-69
2023/10/01 04:48:36;;;;;;;;;23.00;21.33;;;;;19.18;87.92;101587.94;6213938;22;44829;-71
2023/10/01 04:51:07;;;;;;;;;21.33;20.00;;;;;19.21;88.30;101587.00;6185459;22;47570;-70
2023/10/01 04:53:33;;;;;;;;;22.33;18.33;;;;;19.11;88.33;101581.69;6211255;22;45157;-69
2023/10/01 04:56:01;;;;;;;;;22.00;20.67;;;;;19.12;88.09;101579.91;6214707;22;44802;-69
2023/10/01 04:58:29;;;;;;;;;24.00;22.67;;;;;19.15;88.50;101578.06;6187424;22;44786;-70
2023/10/01 05:00:55;;;;;;;;;23.50;22.50;;;;;19.12;88.55;101586.19;6214618;22;45949;-70
2023/10/01 05:03:38;;;;;;;;;22.67;22.00;;;;;19.12;88.73;101587.97;6215240;22;44868;-70
2023/10/01 05:06:04;;;;;;;;;24.33;21.67;;;;;19.03;88.68;101582.66;6215439;22;45478;-70
2023/10/01 05:08:38;;;;;;;;;22.67;22.00;;;;;18.99;88.64;101593.47;6182530;23;45368;-68
2023/10/01 05:11:04;;;;;;;;;28.67;25.67;;;;;19.04;88.96;101595.25;6182984;23;47252;-71
2023/10/01 05:13:31;;;;;;;;;21.33;20.00;;;;;18.99;89.67;101593.47;6184519;22;45735;-71
2023/10/01 05:15:56;;;;;;;;;23.33;20.33;;;;;18.97;89.47;101595.28;6185478;22;44874;-70
2023/10/01 05:18:26;;;;;;;;;23.00;22.00;;;;;19.12;89.61;101587.97;6185524;22;45466;-71
2023/10/01 05:20:58;;;;;;;;;26.33;20.67;;;;;18.95;90.05;101594.41;6207854;22;47951;-70
2023/10/01 05:23:24;;;;;;;;;21.00;20.00;;;;;18.93;89.92;101598.91;6180052;23;44828;-71
2023/10/01 05:25:50;;;;;;;;;20.67;20.67;;;;;18.90;89.82;101598.03;6181232;22;45725;-71
2023/10/01 05:28:31;;;;;;;;;27.00;22.67;;;;;18.89;90.38;101594.44;6181414;22;44847;-70
2023/10/01 05:30:58;;;;;;;;;23.00;20.33;;;;;18.98;89.95;101599.75;6180980;23;45647;-71
2023/10/01 05:33:24;;;;;;;;;24.00;24.00;;;;;18.90;89.97;101598.91;6203896;22;45360;-72
2023/10/01 05:35:54;;;;;;;;;22.67;18.67;;;;;18.89;89.81;101601.66;6204737;22;45139;-72
2023/10/01 05:38:21;;;;;;;;;24.00;23.67;;;;;18.89;89.64;101602.53;6182966;22;45639;-73
2023/10/01 05:40:52;;;;;;;;;23.33;21.33;;;;;18.89;89.92;101607.91;6180141;23;47530;-71
2023/10/01 05:43:18;;;;;;;;;22.00;22.00;;;;;18.87;89.66;101608.84;6183119;22;45356;-72
2023/10/01 05:45:50;;;;;;;;;24.67;21.33;;;;;18.83;89.49;101602.56;6181056;23;44897;-71
2023/10/01 05:48:19;;;;;;;;;24.00;22.67;;;;;18.88;89.31;101606.13;6183468;23;44844;-71
2023/10/01 05:50:53;;;;;;;;;25.00;22.67;;;;;18.90;89.65;101601.59;6206261;22;47059;-72
2023/10/01 05:53:18;;;;;;;;;22.67;21.33;;;;;18.86;89.65;101602.53;6183250;22;45420;-71
2023/10/01 05:55:44;;;;;;;;;20.00;18.67;;;;;18.91;89.79;101610.63;6180383;23;44762;-70
2023/10/01 05:58:13;;;;;;;;;25.33;23.33;;;;;18.89;89.95;101607.91;6182739;22;45350;-72
2023/10/01 06:00:45;;;;;;;;;23.67;23.67;;;;;18.90;89.33;101616.88;6183413;22;45487;-71
2023/10/01 06:03:23;;;;;;;;;23.33;20.33;;;;;19.02;89.98;101613.22;6183073;22;44863;-73
2023/10/01 06:05:58;;;;;;;;;21.67;19.33;;;;;18.92;90.15;101618.66;6179881;23;44715;-71
2023/10/01 06:08:32;;;;;;;;;19.00;18.33;;;;;19.07;90.77;101616.81;6206432;22;44960;-71
2023/10/01 06:10:59;;;;;;;;;22.00;21.33;;;;;18.97;90.58;101622.25;6181664;23;47169;-70
2023/10/01 06:13:31;;;;;;;;;21.00;21.00;;;;;19.07;90.37;101612.28;6182895;23;44729;-72
2023/10/01 06:16:11;;;;;;;;;22.00;20.67;;;;;19.14;89.99;101618.53;6183017;22;45376;-70
2023/10/01 06:18:41;;;;;;;;;28.00;21.67;;;;;19.01;89.85;101622.19;6181041;23;45202;-71
2023/10/01 06:21:10;;;;;;;;;21.00;18.00;;;;;19.04;89.55;101622.19;6183561;23;45350;-72
2023/10/01 06:23:52;;;;;;;;;23.00;18.33;;;;;19.24;88.76;101620.25;6184802;22;44850;-73
2023/10/01 06:26:37;;;;;;;;;23.33;22.00;;;;;19.34;88.67;101621.06;6208075;22;44834;-71
2023/10/01 06:29:05;;;;;;;;;16.67;15.33;;;;;19.24;88.59;101625.63;6183548;22;45395;-72
2023/10/01 06:34:19;;;;;;;;;20.33;19.33;;;;;19.25;88.37;101611.25;6182573;23;44717;-71
2023/10/01 06:36:45;;;;;;;;;17.67;16.00;;;;;19.29;88.38;101612.09;6181205;23;45423;-70
2023/10/01 06:39:19;;;;;;;;;21.00;19.33;;;;;19.33;88.85;101613.88;6183134;22;45395;-71
2023/10/01 06:41:45;;;;;;;;;22.67;18.33;;;;;19.34;88.75;101607.59;6183608;23;47239;-71
2023/10/01 06:44:14;;;;;;;;;19.33;18.67;;;;;19.39;88.19;101611.16;6180828;23;44781;-71
2023/10/01 06:46:40;;;;;;;;;24.33;22.67;;;;;19.48;88.00;101612.88;6182866;22;44938;-72
2023/10/01 06:49:08;;;;;;;;;24.00;23.00;;;;;19.50;87.65;101605.66;6184215;23;44774;-71
2023/10/01 06:51:44;;;;;;;;;23.33;21.67;;;;;19.56;88.08;101601.09;6183445;22;45165;-71
2023/10/01 06:54:14;;;;;;;;;22.67;21.33;;;;;19.75;87.39;101596.47;6183527;22;45487;-70
2023/10/01 06:56:47;;;;;;;;;26.00;24.00;;;;;19.84;87.42;101600.84;6180663;23;44755;-71
2023/10/01 06:59:17;;;;;;;;;24.00;20.33;;;;;19.68;87.26;101597.38;6182502;23;45101;-70
2023/10/01 07:01:47;;;;;;;;;23.00;21.67;;;;;19.81;87.25;101597.28;6181122;23;46940;-72
2023/10/01 07:04:15;;;;;;;;;20.67;19.33;;;;;19.86;87.03;101588.22;6180727;23;45086;-71
2023/10/01 07:06:44;;;;;;;;;17.33;17.33;;;;;19.90;86.56;101599.91;6184636;22;44776;-72
2023/10/01 07:09:25;;;;;;;;;20.67;17.33;;;;;20.01;85.59;101597.97;6214274;22;44762;-71
2023/10/01 07:11:52;;;;;;;;;22.67;19.67;;;;;20.03;85.43;101598.84;6186782;22;47570;-71
2023/10/01 07:14:29;;;;;;;;;24.33;19.67;;;;;20.06;85.27;101601.50;6213686;22;44686;-71
2023/10/01 07:16:56;;;;;;;;;22.00;21.67;;;;;20.14;84.83;101605.03;6186393;22;44851;-70
2023/10/01 07:19:21;;;;;;;;;25.00;25.00;;;;;20.17;84.35;101599.56;6186330;22;45429;-69
2023/10/01 07:21:56;;;;;;;;;23.00;20.33;;;;;20.23;84.22;101603.13;6186240;22;47020;-70
2023/10/01 07:24:23;;;;;;;;;23.00;19.33;;;;;20.27;83.88;101600.34;6214215;22;45334;-70
2023/10/01 07:26:50;;;;;;;;;25.33;21.67;;;;;20.34;nan;101603.84;6213979;22;44729;-71
2023/10/01 07:29:16;;;;;;;;;24.00;23.00;;;;;20.39;83.31;101600.19;6213615;22;45379;-71
2023/10/01 07:31:43;;;;;;;;;14.00;14.00;;;;;20.48;82.82;101604.59;6213049;22;45240;-71
2023/10/01 07:34:16;;;;;;;;;27.00;26.00;;;;;20.49;82.54;101600.97;6186409;22;45427;-71
2023/10/01 07:36:45;;;;;;;;;27.00;22.00;;;;;20.57;82.57;101603.56;6213485;22;44789;-71
2023/10/01 07:39:15;;;;;;;;;22.33;19.67;;;;;20.60;82.56;101605.38;6214674;22;44860;-71
2023/10/01 07:41:44;;;;;;;;;20.00;19.33;;;;;20.67;82.35;101616.06;6186512;22;45535;-71
2023/10/01 07:44:11;;;;;;;;;20.33;19.00;;;;;20.73;82.07;101609.69;6211515;22;44923;-70
2023/10/01 07:46:37;;;;;;;;;23.00;23.00;;;;;20.79;81.71;101615.00;6161680;22;44787;-71
2023/10/01 07:49:03;;;;;;;;;20.33;20.33;;;;;20.87;81.51;101612.22;6214029;22;45361;-70
2023/10/01 07:51:35;;;;;;;;;19.33;19.00;;;;;20.89;80.95;101622.06;6185961;22;45615;-71
2023/10/01 07:54:10;;;;;;;;;23.33;20.33;;;;;21.00;80.97;101613.78;6213034;22;44936;-71
2023/10/01 07:56:48;;;;;;;;;22.67;19.33;;;;;21.25;80.79;101619.72;6211693;22;45392;-73
2023/10/01 07:59:28;;;;;;;;;21.67;18.33;;;;;21.30;79.97;101611.53;6213274;22;45406;-72
2023/10/01 08:03:27;;;;;;;;;26.67;19.67;;;;;21.43;80.09;101618.56;6213896;22;45498;-71
2023/10/01 08:07:16;;;;;;;;;18.67;18.00;;;;;21.44;79.67;101623.03;6206770;22;45352;-71
2023/10/01 08:09:46;;;;;;;;;21.00;19.67;;;;;21.57;79.54;101627.34;6211223;22;44864;-72
2023/10/01 08:12:15;;;;;;;;;24.67;19.67;;;;;21.69;79.13;101614.47;6210860;22;47045;-72
2023/10/01 08:14:40;;;;;;;;;22.00;20.00;;;;;21.68;79.03;101637.97;6186112;22;44902;-71
2023/10/01 08:17:08;;;;;;;;;22.00;21.00;;;;;21.77;78.99;101626.06;6211167;22;45355;-72
2023/10/01 08:19:45;;;;;;;;;22.00;18.67;;;;;22.03;78.02;101624.69;6213832;22;45386;-72
2023/10/01 08:22:14;;;;;;;;;20.00;17.00;;;;;21.94;77.83;101632.06;6213384;22;45336;-71
2023/10/01 08:24:45;;;;;;;;;18.67;17.00;;;;;22.10;78.02;101631.78;6211725;22;45350;-71
2023/10/01 08:27:29;;;;;;;;;14.33;14.33;;;;;22.12;76.94;101636.25;6213079;22;45329;-70
2023/10/01 08:30:18;;;;;;;;;13.00;13.00;;;;;22.17;77.05;101634.31;6213910;22;44739;-70
2023/10/01 08:32:53;;;;;;;;;17.00;15.00;;;;;22.51;76.49;101641.78;6185687;22;46841;-71
2023/10/01 08:35:32;;;;;;;;;19.00;16.67;;;;;22.58;76.52;101629.00;6213023;22;44851;-73
2023/10/01 08:37:59;;;;;;;;;17.33;14.67;;;;;22.44;76.49;101641.97;6213600;22;44737;-72
2023/10/01 08:40:27;;;;;;;;;20.00;17.67;;;;;22.53;75.58;101630.94;6185907;22;44817;-71
2023/10/01 08:42:53;;;;;;;;;16.67;16.67;;;;;22.61;75.60;101633.47;6185093;22;46696;-72
2023/10/01 08:45:34;;;;;;;;;19.67;16.67;;;;;22.86;75.13;101628.38;6213224;22;44796;-72
2023/10/01 08:48:01;;;;;;;;;19.00;15.33;;;;;22.85;75.21;101624.78;6186651;22;45334;-71
2023/10/01 08:50:27;;;;;;;;;18.33;17.33;;;;;22.88;74.73;101638.25;6211213;22;44815;-72
2023/10/01 08:53:18;;;;;;;;;16.33;15.00;;;;;22.96;73.77;101627.25;6187734;22;45538;-71
2023/10/01 08:58:15;;;;;;;;;16.33;12.00;;;;;23.11;73.80;101618.78;6213168;22;44776;-71
2023/10/01 09:00:51;;;;;;;;;16.67;15.33;;;;;23.39;73.00;101617.19;6186359;22;45483;-71
2023/10/01 09:03:26;;;;;;;;;17.33;14.67;;;;;23.22;73.13;101623.06;6184629;22;46485;-71
2023/10/01 09:06:03;;;;;;;;;18.67;16.00;;;;;23.29;72.57;101619.25;6212868;22;45482;-71
2023/10/01 09:08:43;;;;;;;;;13.00;13.00;;;;;23.34;72.92;101629.06;6210197;22;44867;-71
2023/10/01 09:11:13;;;;;;;;;22.67;17.00;;;;;23.59;72.95;101625.72;6213443;22;45349;-71
2023/10/01 09:16:49;;;;;;;;;14.00;13.33;;;;;23.59;72.72;101622.13;6185055;22;44808;-71
2023/10/01 09:19:31;;;;;;;;;13.33;12.00;;;;;23.63;72.37;101630.16;6212513;22;45305;-72
2023/10/01 09:22:22;;;;;;;;;13.67;13.00;;;;;23.89;71.01;101617.72;6185128;22;45343;-72
2023/10/01 09:25:01;;;;;;;;;12.33;11.00;;;;;24.00;71.98;101622.88;6212806;22;45199;-72
2023/10/01 09:27:30;;;;;;;;;11.00;11.00;;;;;23.86;71.25;101613.28;6185180;22;44841;-71
2023/10/01 09:30:27;;;;;;;;;17.33;15.33;;;;;24.16;70.35;101616.09;6209923;22;45345;-71
2023/10/01 09:33:04;;;;;;;;;11.67;11.00;;;;;24.22;70.44;101614.97;6213505;22;44788;-72
2023/10/01 09:36:03;;;;;;;;;14.00;11.67;;;;;24.33;70.18;101618.28;6212058;22;45071;-71
2023/10/01 09:38:28;;;;;;;;;14.67;11.00;;;;;24.15;70.05;101615.16;6212452;22;45323;-71
2023/10/01 09:40:58;;;;;;;;;11.00;9.00;;;;;24.40;69.86;101598.16;6185415;22;44748;-72
2023/10/01 09:43:24;;;;;;;;;10.33;10.33;;;;;24.38;70.08;101619.06;6212971;22;44796;-71
2023/10/01 09:45:52;;;;;;;;;7.67;7.67;;;;;24.55;69.10;101613.16;6211386;22;45404;-71
2023/10/01 09:48:30;;;;;;;;;11.67;9.33;;;;;24.63;68.56;101621.06;6210901;22;45364;-72
2023/10/01 09:51:15;;;;;;;;;8.33;7.00;;;;;24.87;67.65;101606.69;6212814;22;44920;-72
2023/10/01 09:53:54;;;;;;;;;9.67;9.67;;;;;24.85;68.20;101611.31;6185697;22;45718;-72
2023/10/01 09:56:26;;;;;;;;;9.33;6.33;;;;;24.90;68.22;101606.59;6211705;22;46917;-70
2023/10/01 09:59:01;;;;;;;;;8.00;6.33;;;;;25.18;68.44;101602.09;6212784;22;44869;-71
2023/10/01 10:01:27;;;;;;;;;5.33;5.33;;;;;25.13;67.93;101599.53;6184951;22;44865;-72
2023/10/01 10:03:56;;;;;;;;;6.75;6.75;;;;;25.38;67.60;101604.19;6212513;22;44777;-71
2023/10/01 10:06:25;;;;;;;;;8.00;8.00;;;;;25.35;67.15;101600.63;6211932;22;44997;-70
2023/10/01 10:09:03;;;;;;;;;11.67;8.00;;;;;25.47;66.84;101593.88;6178490;23;45417;-70
2023/10/01 10:11:36;;;;;;;;;3.50;2.50;;;;;25.69;65.94;101594.00;6181840;23;44828;-70
2023/10/01 10:14:28;;;;;;;;;3.00;3.00;;;;;25.80;66.00;101592.72;6181921;22;44841;-71
2023/10/01 10:19:57;;;;;;;;;4.00;3.00;;;;;26.23;64.23;101593.91;6182777;22;45365;-71
2023/10/01 10:22:25;;;;;;;;;5.00;5.00;;;;;26.11;64.66;101585.22;6206743;22;44703;-70
2023/10/01 10:25:20;;;;;;;;;9.25;5.25;;;;;26.38;63.77;101584.22;6181458;23;44859;-72
2023/10/01 10:27:47;;;;;;;;;3.75;3.75;;;;;26.28;63.79;101587.34;6182687;23;45092;-71
2023/10/01 10:30:16;;;;;;;;;7.33;7.33;;;;;26.31;63.83;101587.19;6183239;22;45163;-73
2023/10/01 10:33:13;;;;;;;;;10.25;7.00;;;;;26.61;63.22;101583.38;6183627;22;45314;-71
2023/10/01 10:35:46;;;;;;;;;4.00;4.00;;;;;26.40;62.66;101575.06;6206443;22;44855;-70
2023/10/01 10:38:54;;;;;;;;;3.00;3.00;;;;;26.73;62.01;101571.97;6184331;22;44937;-71
2023/10/01 10:41:25;;;;;;;;;8.67;6.33;;;;;26.60;62.57;101577.03;6206466;22;44832;-71
2023/10/01 10:44:10;;;;;;;;;6.00;6.00;;;;;26.84;62.04;101568.81;6183435;22;44690;-73
2023/10/01 10:47:00;;;;;;;;;4.33;4.33;;;;;26.89;61.81;101572.25;6184118;22;44761;-72
2023/10/01 10:49:54;;;;;;;;;6.00;6.00;;;;;26.92;62.17;101577.56;6183695;23;44949;-72
2023/10/01 10:52:31;;;;;;;;;6.25;4.50;;;;;26.86;61.62;101573.22;6183385;22;44931;-71
2023/10/01 10:55:15;;;;;;;;;5.00;4.00;;;;;26.91;60.92;101578.53;6183751;22;45337;-71
2023/10/01 10:57:48;;;;;;;;;6.67;6.00;;;;;26.72;61.66;101564.72;6207075;22;45401;-71
2023/10/01 11:00:27;;;;;;;;;6.67;6.00;;;;;26.76;61.29;101569.09;6206490;22;46771;-72
2023/10/01 11:02:56;;;;;;;;;6.33;5.67;;;;;26.77;61.02;101567.28;6183471;23;44795;-72
2023/10/01 11:05:29;;;;;;;;;4.50;3.50;;;;;27.04;60.41;101576.16;6181514;23;44765;-72
2023/10/01 11:08:02;;;;;;;;;9.67;7.33;;;;;27.08;61.11;101572.34;6180001;23;45302;-72
2023/10/01 11:10:45;;;;;;;;;10.00;8.33;;;;;27.10;60.17;101560.41;6181128;23;46811;-71
2023/10/01 11:13:13;;;;;;;;;6.67;6.67;;;;;26.89;60.57;101561.31;6206896;22;45808;-70
2023/10/01 11:15:39;;;;;;;;;8.00;6.00;;;;;26.89;60.21;101564.94;6181949;23;44947;-72
2023/10/01 11:18:09;;;;;;;;;11.33;9.00;;;;;26.97;59.92;101563.75;6183843;22;44762;-72
2023/10/01 11:20:44;;;;;;;;;6.00;6.00;;;;;27.01;60.30;101557.22;6181051;23;47312;-72
2023/10/01 11:23:10;;;;;;;;;5.33;5.33;;;;;27.00;60.21;101553.56;6181052;23;45221;-71
2023/10/01 11:25:40;;;;;;;;;3.00;3.00;;;;;27.04;59.12;101557.06;6206389;22;44809;-72
2023/10/01 11:28:05;;;;;;;;;9.33;9.00;;;;;27.02;59.23;101556.25;6184056;23;44654;-72
2023/10/01 11:30:42;;;;;;;;;4.25;3.50;;;;;27.24;58.46;101550.78;6182737;22;45387;-71
2023/10/01 11:36:07;;;;;;;;;6.50;5.50;;;;;27.31;58.81;101545.00;6182119;22;44809;-72
2023/10/01 11:38:34;;;;;;;;;6.00;3.00;;;;;27.20;58.51;101544.53;6184047;22;44782;-71
2023/10/01 11:41:12;;;;;;;;;7.25;7.25;;;;;27.23;58.44;101547.19;6183010;23;45297;-71
2023/10/01 11:43:42;;;;;;;;;15.00;13.33;;;;;27.17;58.43;101539.22;6183952;22;44780;-70
2023/10/01 11:46:23;;;;;;;;;16.67;12.00;;;;;27.44;58.70;101531.69;6181804;23;44863;-71
2023/10/01 11:49:03;;;;;;;;;7.75;7.75;;;;;27.42;58.46;101535.44;6183759;23;44735;-72
2023/10/01 11:51:58;;;;;;;;;9.67;9.67;;;;;27.32;58.02;101533.09;6181470;23;47217;-71
2023/10/01 11:54:43;;;;;;;;;4.33;4.33;;;;;27.34;57.51;101536.66;6183102;22;44788;-72
2023/10/01 11:57:22;;;;;;;;;8.00;6.33;;;;;27.38;57.44;101531.06;6206570;22;44738;-71
2023/10/01 11:59:54;;;;;;;;;12.67;12.67;;;;;27.37;57.57;101523.81;6183503;22;44808;-71
2023/10/01 12:02:26;;;;;;;;;4.00;3.00;;;;;27.48;57.00;101529.72;6181844;23;46981;-72
2023/10/01 12:04:57;;;;;;;;;6.00;6.00;;;;;27.57;57.04;101532.06;6181239;23;44773;-71
2023/10/01 12:07:31;;;;;;;;;4.00;3.33;;;;;27.59;56.27;101526.50;6183360;22;44910;-72
2023/10/01 12:09:57;;;;;;;;;10.00;10.00;;;;;27.44;57.29;101528.97;6186026;22;44805;-71
2023/10/01 12:12:28;;;;;;;;;2.67;2.67;;;;;27.52;56.61;101525.88;6213086;22;44982;-71